Time;durP1;ratioP1;P1;durP2;ratioP2;P2;SDS_P1;SDS_P2;PMS_P1;PMS_P2;Temp;Humidity;BMP_temperature;BMP_pressure;BME280_temperature;BME280_humidity;BME280_pressure;Samples;Min_cycle;Max_cycle;Signal;HPM_P1;HPM_P2
2024/01/05 00:02:16;;;;;;;0.10;0.10;;;;;;;10.98;54.24;100762.56;6097330;23;20435;-89
2024/01/05 00:04:44;;;;;;;0.20;0.20;;;;;;;11.01;54.11;100764.88;6097521;23;20410;-89
2024/01/05 00:07:10;;;;;;;0.10;0.10;;;;;;;11.02;53.90;100773.66;6097236;23;20437;-88
2024/01/05 00:09:37;;;;;;;0.10;0.10;;;;;;;10.99;53.76;100772.19;6123498;23;20458;-89
2024/01/05 00:12:04;;;;;;;0.10;0.10;;;;;;;10.86;53.84;100772.72;6121594;23;20416;-88
2024/01/05 00:14:35;;;;;;;0.20;0.20;;;;;;;10.83;54.04;100775.72;6122683;23;20355;-89
2024/01/05 00:17:04;;;;;;;0.20;0.20;;;;;;;10.79;54.10;100784.19;6096781;23;20421;-89
2024/01/05 00:19:30;;;;;;;0.10;0.10;;;;;;;10.75;54.27;100786.38;6096969;23;20387;-90
2024/01/05 00:21:59;;;;;;;0.30;0.30;;;;;;;10.59;54.34;100781.06;6121792;23;20370;-89
2024/01/05 00:24:24;;;;;;;0.23;0.20;;;;;;;10.60;54.44;100793.34;6123515;23;20372;-90
2024/01/05 00:26:55;;;;;;;0.50;0.40;;;;;;;10.59;54.33;100789.88;6123624;23;20419;-87
2024/01/05 00:29:23;;;;;;;0.10;0.10;;;;;;;10.56;54.44;100797.31;6121639;23;20685;-88
2024/01/05 00:31:49;;;;;;;2.40;0.60;;;;;;;10.47;54.90;100802.63;6121890;23;20376;-89
2024/01/05 00:34:17;;;;;;;2.83;0.53;;;;;;;10.47;54.84;100796.50;6122690;23;20387;-90
2024/01/05 00:36:45;;;;;;;0.23;0.20;;;;;;;10.46;54.81;100798.34;6140441;23;20391;-90
2024/01/05 00:39:11;;;;;;;0.10;0.10;;;;;;;10.50;54.27;100793.53;6124862;23;20367;-89
2024/01/05 00:41:39;;;;;;;0.10;0.10;;;;;;;10.52;54.54;100797.66;6129962;23;20402;-91
2024/01/05 00:44:07;;;;;;;0.10;0.10;;;;;;;10.39;54.91;100799.16;6097631;23;20386;-89
2024/01/05 00:46:37;;;;;;;0.28;0.28;;;;;;;10.52;54.49;100802.94;6096872;23;20375;-88
2024/01/05 00:49:08;;;;;;;0.10;0.10;;;;;;;10.60;54.20;100791.50;6120785;23;20363;-89
2024/01/05 00:51:36;;;;;;;0.30;0.30;;;;;;;10.53;53.90;100801.13;6088899;23;20826;-89
2024/01/05 00:54:07;;;;;;;0.20;0.20;;;;;;;10.52;54.51;100804.78;6095274;23;20369;-89
2024/01/05 00:56:42;;;;;;;0.20;0.20;;;;;;;10.55;54.19;100808.91;6115126;23;20433;-88
2024/01/05 00:59:08;;;;;;;0.17;0.17;;;;;;;10.52;54.30;100807.44;6122863;23;20385;-89
2024/01/05 01:01:33;;;;;;;0.15;0.15;;;;;;;10.52;53.92;100810.09;6096719;23;20981;-90
2024/01/05 01:04:02;;;;;;;0.10;0.10;;;;;;;10.55;53.75;100809.72;6094915;23;20385;-89
2024/01/05 01:06:28;;;;;;;0.10;0.10;;;;;;;10.56;54.04;100811.41;6070625;23;20853;-89
2024/01/05 01:08:56;;;;;;;0.20;0.20;;;;;;;10.63;53.96;100817.69;6093630;23;20501;-89
2024/01/05 01:11:24;;;;;;;0.10;0.10;;;;;;;10.67;53.73;100820.81;6093603;23;20872;-89
2024/01/05 01:13:49;;;;;;;0.20;0.20;;;;;;;10.58;53.89;100825.31;6069468;23;20497;-89
2024/01/05 01:16:15;;;;;;;0.40;0.40;;;;;;;10.45;53.98;100825.81;6093835;23;20754;-89
2024/01/05 01:18:43;;;;;;;0.20;0.20;;;;;;;10.47;53.86;100826.47;6070187;23;20404;-89
2024/01/05 01:21:13;;;;;;;0.30;0.30;;;;;;;10.46;53.83;100832.78;6070383;23;20377;-90
2024/01/05 01:23:39;;;;;;;0.10;0.10;;;;;;;10.40;54.26;100840.56;6099721;23;20875;-89
2024/01/05 01:26:04;;;;;;;0.03;0.03;;;;;;;10.39;54.10;100831.78;6101474;23;20435;-89
2024/01/05 01:28:30;;;;;;;0.20;0.20;;;;;;;10.47;54.29;100833.59;6102408;23;20460;-90
2024/01/05 01:30:57;;;;;;;0.20;0.20;;;;;;;10.43;53.91;100840.25;6106972;23;20402;-89
2024/01/05 01:33:25;;;;;;;0.10;0.10;;;;;;;10.37;53.87;100839.09;6151453;23;20436;-89
2024/01/05 01:35:50;;;;;;;0.10;0.10;;;;;;;10.37;53.89;100844.38;6150711;23;20368;-90
2024/01/05 01:38:21;;;;;;;0.20;0.20;;;;;;;10.30;54.13;100843.34;6149109;23;20416;-90
2024/01/05 01:40:49;;;;;;;0.52;0.30;;;;;;;10.30;54.28;100857.44;6112487;23;20512;-89
2024/01/05 01:43:20;;;;;;;0.25;0.25;;;;;;;10.21;54.58;100852.25;6123833;23;20360;-89
2024/01/05 01:45:49;;;;;;;0.10;0.10;;;;;;;10.29;54.40;100850.47;6125267;23;20870;-90
2024/01/05 01:48:17;;;;;;;0.17;0.17;;;;;;;10.26;53.93;100853.47;6126207;23;20360;-90
2024/01/05 01:50:44;;;;;;;0.10;0.10;;;;;;;10.27;54.33;100859.56;6126261;23;20356;-93
2024/01/05 01:53:13;;;;;;;0.10;0.10;;;;;;;10.20;54.13;100847.97;6125281;23;20356;-92
2024/01/05 01:55:43;;;;;;;0.30;0.30;;;;;;;10.21;53.98;100860.22;6101038;23;20364;-91
2024/01/05 01:58:09;;;;;;;0.20;0.20;;;;;;;10.09;54.35;100854.41;6125974;23;20384;-91
2024/01/05 02:00:35;;;;;;;0.10;0.10;;;;;;;10.04;54.28;100854.91;6124700;23;20356;-91
2024/01/05 02:03:05;;;;;;;0.10;0.10;;;;;;;10.01;54.34;100855.25;6124199;23;20405;-91
2024/01/05 02:05:31;;;;;;;0.10;0.10;;;;;;;10.06;54.79;100865.34;6123811;23;20371;-91
2024/01/05 02:08:05;;;;;;;0.40;0.40;;;;;;;10.05;54.30;100866.34;6124907;23;20415;-91
2024/01/05 02:10:35;;;;;;;0.20;0.20;;;;;;;10.04;54.08;100857.53;6101884;23;20367;-91
2024/01/05 02:13:01;;;;;;;0.20;0.20;;;;;;;10.21;53.82;100860.22;6126863;23;20396;-92
2024/01/05 02:15:28;;;;;;;0.15;0.15;;;;;;;10.18;54.04;100871.97;6100248;23;20364;-91
2024/01/05 02:17:58;;;;;;;0.20;0.20;;;;;;;10.10;54.20;100864.00;6124775;23;21125;-90
2024/01/05 02:20:30;;;;;;;0.40;0.40;;;;;;;10.16;53.97;100859.91;6126573;23;20375;-91
2024/01/05 02:23:03;;;;;;;0.10;0.10;;;;;;;10.21;53.90;100861.06;6100085;23;20391;-90
2024/01/05 02:25:28;;;;;;;0.30;0.30;;;;;;;10.13;54.26;100858.38;6100773;23;20799;-89
2024/01/05 02:27:54;;;;;;;0.15;0.15;;;;;;;10.11;54.20;100863.03;6098499;23;20459;-89
2024/01/05 02:30:20;;;;;;;0.30;0.30;;;;;;;10.12;54.04;100860.22;6123092;23;20364;-89
2024/01/05 02:32:49;;;;;;;0.20;0.20;;;;;;;10.12;54.18;100862.88;6098630;23;20386;-89
2024/01/05 02:35:18;;;;;;;0.20;0.20;;;;;;;10.21;53.79;100857.56;6130598;23;20411;-89
2024/01/05 02:37:44;;;;;;;0.10;0.10;;;;;;;10.21;53.70;100869.00;6122946;23;20420;-89
2024/01/05 02:40:17;;;;;;;0.13;0.13;;;;;;;10.20;53.44;100863.88;6143981;23;20375;-88
2024/01/05 02:42:43;;;;;;;0.20;0.20;;;;;;;10.13;53.84;100861.84;6129126;23;20407;-88
2024/01/05 02:45:11;;;;;;;0.20;0.20;;;;;;;10.19;53.70;100872.81;6126153;23;20373;-89
2024/01/05 02:47:37;;;;;;;0.40;0.40;;;;;;;10.13;53.80;100876.94;6126328;23;20371;-88
2024/01/05 02:50:03;;;;;;;0.27;0.27;;;;;;;10.21;53.56;100876.97;6125570;23;20360;-89
2024/01/05 02:52:28;;;;;;;0.47;0.47;;;;;;;10.22;53.54;100875.13;6100951;23;20373;-88
2024/01/05 02:54:54;;;;;;;0.10;0.10;;;;;;;10.16;53.79;100887.22;6125090;23;20375;-88
2024/01/05 02:57:22;;;;;;;0.30;0.30;;;;;;;10.20;53.36;100880.59;6135839;23;20379;-89
2024/01/05 02:59:48;;;;;;;0.10;0.10;;;;;;;10.36;53.19;100886.94;6151164;23;20470;-89
2024/01/05 03:02:13;;;;;;;0.10;0.10;;;;;;;10.44;52.84;100887.78;6125073;23;20376;-88
2024/01/05 03:04:45;;;;;;;0.30;0.20;;;;;;;10.48;53.07;100881.16;6123729;23;20392;-90
2024/01/05 03:07:11;;;;;;;0.10;0.10;;;;;;;10.49;52.58;100872.19;6125922;23;20403;-88
2024/01/05 03:09:36;;;;;;;0.20;0.20;;;;;;;10.43;52.92;100872.88;6129458;23;20796;-88
2024/01/05 03:12:05;;;;;;;0.13;0.13;;;;;;;10.24;53.21;100873.13;6135674;23;20356;-88
2024/01/05 03:14:34;;;;;;;0.10;0.10;;;;;;;10.17;53.08;100882.72;6132416;23;20432;-90
2024/01/05 03:17:00;;;;;;;0.15;0.15;;;;;;;10.17;53.42;100885.38;6123686;23;20380;-89
2024/01/05 03:19:25;;;;;;;0.10;0.10;;;;;;;10.20;53.16;100885.06;6099238;23;20439;-90
2024/01/05 03:21:51;;;;;;;0.10;0.10;;;;;;;10.16;53.09;100875.78;6123153;23;20363;-90
2024/01/05 03:24:19;;;;;;;0.10;0.10;;;;;;;10.22;52.89;100883.91;6122578;23;20380;-90
2024/01/05 03:26:45;;;;;;;0.10;0.10;;;;;;;10.22;53.34;100883.06;6122291;23;20387;-90
2024/01/05 03:29:10;;;;;;;0.10;0.10;;;;;;;10.18;52.82;100879.09;6097030;23;20360;-90
2024/01/05 03:31:36;;;;;;;0.10;0.10;;;;;;;10.22;53.20;100894.50;6096872;23;20844;-90
2024/01/05 03:34:04;;;;;;;0.20;0.20;;;;;;;10.22;53.12;100896.31;6122060;23;20356;-90
2024/01/05 03:36:30;;;;;;;0.30;0.30;;;;;;;10.16;53.10;100889.84;6097430;23;20388;-90
2024/01/05 03:38:58;;;;;;;0.10;0.10;;;;;;;10.10;53.00;100894.00;6096114;23;20484;-90
2024/01/05 03:41:24;;;;;;;0.30;0.30;;;;;;;10.07;53.01;100894.31;6097720;23;20434;-92
2024/01/05 03:43:52;;;;;;;0.10;0.10;;;;;;;10.01;53.48;100894.13;6122494;23;20372;-89
2024/01/05 03:46:20;;;;;;;0.20;0.20;;;;;;;10.05;53.29;100908.72;6122594;23;20371;-91
2024/01/05 03:48:45;;;;;;;0.30;0.30;;;;;;;10.09;53.31;100910.03;6098152;23;20394;-90
2024/01/05 03:51:11;;;;;;;1.00;0.30;;;;;;;10.07;53.08;100915.50;6098005;23;20391;-90
2024/01/05 03:53:37;;;;;;;0.20;0.20;;;;;;;10.07;52.96;100909.38;6097643;23;20371;-89
2024/01/05 03:56:05;;;;;;;0.30;0.30;;;;;;;10.06;53.00;100913.81;6122896;23;20812;-89
2024/01/05 03:58:33;;;;;;;0.10;0.10;;;;;;;10.18;52.79;100914.38;6121115;23;20368;-90
2024/01/05 04:01:02;;;;;;;0.08;0.08;;;;;;;10.25;52.65;100919.84;6122611;23;20843;-90
2024/01/05 04:03:28;;;;;;;0.10;0.10;;;;;;;10.25;53.14;100910.06;6122026;23;20376;-89
2024/01/05 04:05:54;;;;;;;0.20;0.20;;;;;;;10.25;53.03;100925.97;6073418;23;20388;-89
2024/01/05 04:08:20;;;;;;;0.30;0.30;;;;;;;10.33;52.61;100939.28;6123728;23;20364;-89
2024/01/05 04:10:49;;;;;;;0.15;0.15;;;;;;;10.37;52.60;100930.97;6123185;23;20375;-89
2024/01/05 04:13:15;;;;;;;0.10;0.10;;;;;;;10.44;52.25;100922.25;6099494;23;20371;-88
2024/01/05 04:15:40;;;;;;;0.10;0.10;;;;;;;10.44;52.44;100927.53;6096635;23;20359;-89
2024/01/05 04:18:06;;;;;;;0.10;0.10;;;;;;;10.49;52.02;100935.81;6096982;23;20367;-89
2024/01/05 04:20:35;;;;;;;0.20;0.20;;;;;;;10.51;51.85;100940.94;6097173;23;20447;-89
2024/01/05 04:23:05;;;;;;;0.30;0.30;;;;;;;10.40;52.41;100933.31;6122146;23;20352;-89
2024/01/05 04:25:37;;;;;;;0.35;0.35;;;;;;;10.44;52.14;100950.53;6096937;23;20466;-90
2024/01/05 04:28:02;;;;;;;0.20;0.20;;;;;;;10.39;52.19;100950.19;6122691;23;20377;-90
2024/01/05 04:30:31;;;;;;;1.30;0.43;;;;;;;10.36;52.22;100937.28;6122963;23;20364;-91
2024/01/05 04:32:56;;;;;;;0.20;0.20;;;;;;;10.46;52.30;100952.06;6126053;23;20368;-90
2024/01/05 04:35:22;;;;;;;0.20;0.20;;;;;;;10.56;52.14;100957.19;6124930;23;20378;-90
2024/01/05 04:37:48;;;;;;;0.10;0.10;;;;;;;10.58;51.62;100952.53;6101826;23;20367;-90
2024/01/05 04:40:14;;;;;;;0.10;0.10;;;;;;;10.62;51.87;100955.69;6111459;23;20388;-90
2024/01/05 04:42:45;;;;;;;0.17;0.17;;;;;;;10.62;51.45;100955.69;6144618;23;20356;-89
2024/01/05 04:45:16;;;;;;;0.73;0.35;;;;;;;10.70;51.76;100955.72;6120163;23;20721;-91
2024/01/05 04:47:46;;;;;;;0.40;0.40;;;;;;;10.71;51.45;100966.16;6127046;23;20376;-92
2024/01/05 04:50:12;;;;;;;0.10;0.10;;;;;;;10.69;51.39;100967.31;6102441;23;20360;-86
2024/01/05 04:52:38;;;;;;;0.35;0.35;;;;;;;10.68;51.31;100953.22;6100045;23;20368;-86
2024/01/05 04:55:04;;;;;;;0.20;0.20;;;;;;;10.71;51.36;100965.31;6125406;23;20362;-87
2024/01/05 04:57:32;;;;;;;0.22;0.22;;;;;;;10.73;51.11;100976.56;6099690;23;20356;-87
2024/01/05 04:59:58;;;;;;;0.75;0.75;;;;;;;10.70;51.04;100972.44;6125748;23;20364;-88
2024/01/05 05:02:26;;;;;;;0.95;0.95;;;;;;;10.68;51.32;100969.13;6134744;23;20360;-85
2024/01/05 05:04:52;;;;;;;0.30;0.30;;;;;;;10.65;50.86;100984.53;6141351;23;20382;-87
2024/01/05 05:07:20;;;;;;;0.40;0.40;;;;;;;10.56;51.17;100985.53;6124183;23;20387;-86
2024/01/05 05:09:49;;;;;;;0.10;0.10;;;;;;;10.42;51.22;100981.69;6099876;23;20368;-89
2024/01/05 05:12:18;;;;;;;0.50;0.50;;;;;;;10.50;51.29;100992.31;6124320;23;20362;-87
2024/01/05 05:14:44;;;;;;;0.40;0.40;;;;;;;10.45;51.17;100989.31;6124194;23;20704;-88
2024/01/05 05:17:13;;;;;;;0.35;0.35;;;;;;;10.50;51.36;100987.84;6097316;23;20918;-88
2024/01/05 05:19:38;;;;;;;0.20;0.20;;;;;;;10.55;50.70;100984.69;6098462;23;20367;-88
2024/01/05 05:22:05;;;;;;;0.80;0.60;;;;;;;10.56;50.98;100996.13;6097677;23;20855;-88
2024/01/05 05:28:32;;;;;;;0.20;0.20;;;;;;;10.50;50.67;100992.31;6034372;23;20872;-85
2024/01/05 05:39:09;;;;;;;0.50;0.50;;;;;;;10.44;50.99;101007.03;5976939;24;20813;-87
2024/01/05 05:41:42;;;;;;;2.10;0.70;;;;;;;10.37;51.04;101002.53;5988150;23;20383;-85
2024/01/05 05:44:10;;;;;;;0.20;0.20;;;;;;;10.32;51.22;101000.38;6046764;23;20380;-87
2024/01/05 05:46:46;;;;;;;0.50;0.50;;;;;;;10.35;50.94;101008.00;6099206;23;20832;-86
2024/01/05 05:49:14;;;;;;;0.70;0.70;;;;;;;10.29;51.28;101001.47;6098669;23;20360;-87
2024/01/05 05:51:43;;;;;;;0.65;0.52;;;;;;;10.27;51.23;101011.41;6123974;23;20372;-87
2024/01/05 05:54:14;;;;;;;0.40;0.40;;;;;;;10.22;51.49;101012.91;6123342;23;20402;-86
2024/01/05 05:56:41;;;;;;;0.50;0.50;;;;;;;10.22;51.54;101012.91;6124883;23;20438;-87
2024/01/05 05:59:10;;;;;;;0.50;0.50;;;;;;;10.17;51.33;101018.66;6098902;23;20806;-86
2024/01/05 06:01:39;;;;;;;0.20;0.20;;;;;;;10.24;51.26;101024.97;6099725;23;20364;-88
2024/01/05 06:04:07;;;;;;;0.20;0.20;;;;;;;10.26;50.80;101017.72;6122310;23;20723;-87
2024/01/05 06:06:33;;;;;;;0.20;0.20;;;;;;;10.25;50.96;101023.19;6098684;23;20815;-86
2024/01/05 06:09:01;;;;;;;0.50;0.40;;;;;;;10.24;51.19;101032.09;6122697;23;20356;-88
2024/01/05 06:11:27;;;;;;;0.40;0.40;;;;;;;10.25;51.38;101028.47;6097833;23;20452;-88
2024/01/05 06:14:04;;;;;;;0.20;0.20;;;;;;;10.20;51.45;101022.81;6097376;23;20455;-88
2024/01/05 06:16:29;;;;;;;0.20;0.20;;;;;;;10.19;51.33;101016.69;6122239;23;20367;-88
2024/01/05 06:18:55;;;;;;;0.50;0.50;;;;;;;10.22;51.31;101024.31;6121276;23;20356;-88
2024/01/05 06:21:21;;;;;;;0.20;0.20;;;;;;;10.23;51.25;101025.97;6121951;23;20740;-88
2024/01/05 06:23:46;;;;;;;0.90;0.90;;;;;;;10.33;51.21;101033.81;6123611;23;20352;-89
2024/01/05 06:26:12;;;;;;;0.30;0.30;;;;;;;10.36;51.11;101030.03;6097815;23;20360;-88
2024/01/05 06:28:38;;;;;;;0.57;0.43;;;;;;;10.35;51.08;101034.50;6100153;23;20443;-88
2024/01/05 06:31:05;;;;;;;0.38;0.38;;;;;;;10.40;51.34;101029.53;6123557;23;20400;-85
2024/01/05 06:33:33;;;;;;;0.38;0.38;;;;;;;10.45;51.09;101032.53;6126190;23;20367;-87
2024/01/05 06:36:01;;;;;;;0.40;0.40;;;;;;;10.33;50.96;101033.81;6125041;23;20840;-87
2024/01/05 06:38:30;;;;;;;0.10;0.10;;;;;;;10.32;51.19;101034.84;6123295;23;20356;-87
2024/01/05 06:40:58;;;;;;;0.20;0.20;;;;;;;10.35;51.19;101026.53;6124206;23;20391;-87
2024/01/05 06:43:26;;;;;;;0.50;0.45;;;;;;;10.50;51.19;101038.19;6124736;23;20808;-88
2024/01/05 06:45:55;;;;;;;0.40;0.40;;;;;;;10.56;51.12;101034.06;6110448;23;20379;-86
2024/01/05 06:48:20;;;;;;;0.30;0.30;;;;;;;10.60;50.80;101034.56;6134889;23;20364;-85
2024/01/05 06:50:46;;;;;;;0.30;0.30;;;;;;;10.62;50.61;101027.28;6121543;23;20423;-87
2024/01/05 06:53:17;;;;;;;0.40;0.40;;;;;;;10.73;50.92;101031.44;6098230;23;20376;-88
2024/01/05 06:55:42;;;;;;;0.30;0.30;;;;;;;10.76;50.47;101023.16;6099507;23;20364;-87
2024/01/05 06:58:10;;;;;;;0.77;0.73;;;;;;;10.86;50.32;101032.63;6122369;23;20404;-87
2024/01/05 07:00:37;;;;;;;0.40;0.40;;;;;;;10.85;50.68;101023.00;6124462;23;20447;-88
2024/01/05 07:03:03;;;;;;;0.50;0.50;;;;;;;10.87;50.60;101028.97;6126738;23;20704;-87
2024/01/05 07:05:29;;;;;;;0.20;0.20;;;;;;;10.87;50.92;101026.31;6135072;23;20390;-86
2024/01/05 07:07:55;;;;;;;0.50;0.20;;;;;;;10.93;50.48;101021.34;6137660;23;20455;-89
2024/01/05 07:10:30;;;;;;;0.10;0.10;;;;;;;11.05;50.24;101028.81;6136765;23;20375;-90
2024/01/05 07:12:57;;;;;;;0.30;0.30;;;;;;;11.10;50.51;101020.38;6145538;23;20423;-89
2024/01/05 07:15:24;;;;;;;0.60;0.40;;;;;;;11.19;50.41;101018.56;6145443;23;20395;-89
2024/01/05 07:17:55;;;;;;;0.30;0.30;;;;;;;11.21;50.48;101013.91;6119322;23;20380;-86
2024/01/05 07:20:21;;;;;;;0.95;0.85;;;;;;;11.18;50.50;101015.06;6101242;23;20372;-87
2024/01/05 07:22:47;;;;;;;0.80;0.80;;;;;;;11.18;50.58;101017.72;6098196;23;20360;-87
2024/01/05 07:25:13;;;;;;;1.60;1.30;;;;;;;11.24;50.40;101014.41;6099123;23;20386;-88
2024/01/05 07:27:39;;;;;;;0.90;0.65;;;;;;;11.25;50.54;101004.59;6126363;23;20799;-88
2024/01/05 07:30:05;;;;;;;0.52;0.52;;;;;;;11.45;50.45;101013.88;6100512;23;20848;-88
2024/01/05 07:32:33;;;;;;;0.40;0.40;;;;;;;11.60;50.43;101023.81;6124005;23;20364;-88
2024/01/05 07:35:03;;;;;;;0.20;0.20;;;;;;;11.63;50.26;101016.34;6102104;23;20439;-91
2024/01/05 07:37:31;;;;;;;0.20;0.20;;;;;;;11.76;49.98;101023.78;6100048;23;20378;-88
2024/01/05 07:39:57;;;;;;;0.10;0.10;;;;;;;11.87;49.75;101025.25;6123760;23;20457;-89
2024/01/05 07:42:22;;;;;;;0.20;0.20;;;;;;;11.94;49.74;101025.41;6105053;23;20432;-90
2024/01/05 07:44:51;;;;;;;0.10;0.10;;;;;;;11.96;49.87;101034.06;6128543;23;20860;-88
2024/01/05 07:47:18;;;;;;;0.22;0.22;;;;;;;12.05;49.82;101030.38;6125052;23;20356;-88
2024/01/05 07:49:46;;;;;;;1.50;1.10;;;;;;;12.09;49.62;101022.88;6101836;23;20407;-84
2024/01/05 07:52:15;;;;;;;0.20;0.20;;;;;;;12.13;49.73;101029.50;6128841;23;20360;-84
2024/01/05 07:54:45;;;;;;;0.50;0.50;;;;;;;12.15;50.17;101024.84;6096696;23;20709;-85
2024/01/05 07:57:11;;;;;;;0.30;0.30;;;;;;;12.23;50.00;101028.28;6120484;23;20375;-85
2024/01/05 07:59:36;;;;;;;0.87;0.87;;;;;;;12.27;49.95;101034.09;6123313;23;20357;-86
2024/01/05 08:02:02;;;;;;;0.20;0.20;;;;;;;12.31;49.87;101029.25;6098689;23;20467;-85
2024/01/05 08:04:28;;;;;;;0.60;0.60;;;;;;;12.34;49.87;101029.72;6123929;23;20917;-85
2024/01/05 08:06:54;;;;;;;0.30;0.30;;;;;;;12.39;49.83;101043.34;6106042;23;20368;-87
2024/01/05 08:09:20;;;;;;;0.50;0.50;;;;;;;12.38;49.77;101046.16;6130041;23;20368;-84
2024/01/05 08:11:45;;;;;;;0.30;0.30;;;;;;;12.37;49.67;101052.47;6126471;23;20384;-82
2024/01/05 08:14:11;;;;;;;1.50;0.83;;;;;;;12.33;49.07;101045.84;6100878;23;20374;-83
2024/01/05 08:16:37;;;;;;;0.60;0.60;;;;;;;12.44;49.32;101056.09;6103219;23;20364;-84
2024/01/05 08:19:03;;;;;;;5.07;1.05;;;;;;;12.56;49.13;101048.56;6130643;23;20360;-88
2024/01/05 08:21:28;;;;;;;0.10;0.10;;;;;;;12.55;48.81;101050.41;6127732;23;20859;-85
2024/01/05 08:23:57;;;;;;;0.40;0.40;;;;;;;12.61;48.82;101056.84;6101728;23;20399;-87
2024/01/05 08:26:26;;;;;;;0.70;0.70;;;;;;;12.65;48.94;101054.66;6105057;23;20836;-86
2024/01/05 08:28:53;;;;;;;0.10;0.10;;;;;;;12.77;49.05;101058.59;6121170;23;20360;-84
2024/01/05 08:31:19;;;;;;;0.20;0.20;;;;;;;13.09;48.96;101065.53;6120885;23;20360;-85
2024/01/05 08:33:45;;;;;;;0.30;0.30;;;;;;;13.18;48.86;101063.59;6096165;23;20364;-84
2024/01/05 08:36:14;;;;;;;0.20;0.20;;;;;;;13.16;48.97;101070.94;6121648;23;20712;-86
2024/01/05 08:38:39;;;;;;;0.30;0.30;;;;;;;13.04;49.48;101056.41;6097257;23;20375;-84
2024/01/05 08:41:05;;;;;;;0.75;0.75;;;;;;;12.93;49.03;101069.13;6120508;23;20384;-86
2024/01/05 08:43:30;;;;;;;0.50;0.50;;;;;;;13.00;49.21;101072.75;6096898;23;20356;-85
2024/01/05 08:45:58;;;;;;;0.45;0.45;;;;;;;12.91;48.91;101062.31;6122437;23;20430;-85
2024/01/05 08:48:24;;;;;;;0.20;0.20;;;;;;;12.89;49.13;101066.97;6123860;23;20422;-85
2024/01/05 08:50:50;;;;;;;0.70;0.70;;;;;;;12.98;48.64;101069.44;6131286;23;20419;-84
2024/01/05 08:53:15;;;;;;;0.77;0.77;;;;;;;12.99;48.57;101060.41;6104474;23;20380;-84
2024/01/05 08:55:41;;;;;;;0.25;0.25;;;;;;;13.07;48.61;101064.03;6098299;23;20442;-84
2024/01/05 08:58:09;;;;;;;0.30;0.30;;;;;;;13.13;48.52;101068.66;6123853;23;20352;-85
2024/01/05 09:00:38;;;;;;;0.55;0.55;;;;;;;13.15;48.51;101058.66;6121877;23;20427;-85
2024/01/05 09:03:06;;;;;;;0.50;0.50;;;;;;;13.20;48.55;101053.63;6124622;23;20439;-85
2024/01/05 09:05:32;;;;;;;0.20;0.20;;;;;;;13.16;48.18;101047.84;6122565;23;20387;-83
2024/01/05 09:07:57;;;;;;;0.10;0.10;;;;;;;13.29;48.20;101057.03;6124632;23;20352;-84
2024/01/05 09:10:23;;;;;;;0.40;0.30;;;;;;;13.36;48.34;101058.84;6128468;23;20376;-85
2024/01/05 09:12:54;;;;;;;0.30;0.30;;;;;;;13.36;48.08;101053.53;6108779;23;20444;-83
2024/01/05 09:15:22;;;;;;;0.30;0.30;;;;;;;13.38;48.26;101051.50;6101557;23;20364;-83
2024/01/05 09:17:48;;;;;;;0.80;0.47;;;;;;;13.46;48.32;101055.91;6123220;23;20368;-86
2024/01/05 09:20:16;;;;;;;0.30;0.30;;;;;;;13.53;48.40;101053.38;6125211;23;20364;-84
2024/01/05 09:22:41;;;;;;;0.25;0.25;;;;;;;13.59;48.52;101041.97;6125186;23;20815;-84
2024/01/05 09:25:10;;;;;;;0.25;0.25;;;;;;;13.64;48.79;101039.59;6125333;23;20401;-84
2024/01/05 09:27:36;;;;;;;0.25;0.25;;;;;;;13.54;49.32;101044.34;6126696;23;20367;-84
2024/01/05 09:30:03;;;;;;;1.30;0.65;;;;;;;13.52;49.59;101041.03;6125447;23;20420;-83
2024/01/05 09:32:31;;;;;;;0.20;0.20;;;;;;;13.51;49.51;101040.22;6124638;23;20476;-84
2024/01/05 09:35:00;;;;;;;0.60;0.60;;;;;;;13.38;49.83;101037.38;6101690;23;20770;-83
2024/01/05 09:37:28;;;;;;;0.20;0.20;;;;;;;13.30;49.78;101038.22;6104657;23;20375;-85
2024/01/05 09:39:53;;;;;;;1.20;0.32;;;;;;;13.47;49.59;101033.63;6139409;23;20835;-85
2024/01/05 09:42:23;;;;;;;0.80;0.60;;;;;;;13.53;49.23;101035.53;6137843;23;20419;-87
2024/01/05 09:44:51;;;;;;;0.10;0.10;;;;;;;13.56;48.92;101037.03;6133394;23;20771;-84
2024/01/05 09:47:18;;;;;;;0.20;0.20;;;;;;;13.61;48.86;101037.28;6102746;23;20875;-85
2024/01/05 09:49:45;;;;;;;1.20;0.45;;;;;;;13.70;48.69;101030.03;6106273;23;20455;-85
2024/01/05 09:52:16;;;;;;;0.30;0.30;;;;;;;13.86;48.73;101029.88;6105571;23;20371;-84
2024/01/05 09:54:41;;;;;;;0.22;0.22;;;;;;;13.92;48.76;101025.66;6102312;23;20443;-83
2024/01/05 09:57:15;;;;;;;0.30;0.30;;;;;;;13.92;48.71;101010.50;6126970;23;20379;-84
2024/01/05 09:59:44;;;;;;;0.80;0.80;;;;;;;14.10;48.49;101009.28;6103359;23;20439;-84
2024/01/05 10:02:15;;;;;;;0.10;0.10;;;;;;;14.20;48.12;101009.81;6125541;23;20360;-84
2024/01/05 10:04:42;;;;;;;0.20;0.20;;;;;;;14.23;48.34;101000.63;6125151;23;20724;-84
2024/01/05 10:07:10;;;;;;;0.30;0.30;;;;;;;14.36;48.37;101011.44;6124807;23;20482;-84
2024/01/05 10:09:49;;;;;;;0.70;0.70;;;;;;;14.40;48.14;101003.88;6124106;23;20372;-84
2024/01/05 10:12:17;;;;;;;0.20;0.20;;;;;;;14.35;47.98;100996.47;6123231;23;20380;-85
2024/01/05 10:14:44;;;;;;;0.28;0.28;;;;;;;14.45;48.23;101001.47;6121175;23;20364;-83
2024/01/05 10:17:10;;;;;;;0.20;0.20;;;;;;;14.53;47.87;100990.69;6097152;23;20368;-84
2024/01/05 10:19:39;;;;;;;0.45;0.45;;;;;;;14.62;48.10;100988.75;6121232;23;20420;-84
2024/01/05 10:22:12;;;;;;;0.38;0.38;;;;;;;14.69;47.81;100984.31;6122367;23;20378;-86
2024/01/05 10:24:39;;;;;;;0.20;0.20;;;;;;;14.63;47.75;100969.88;6121932;23;20871;-85
2024/01/05 10:27:10;;;;;;;0.17;0.17;;;;;;;14.76;47.56;100976.38;6123359;23;20891;-85
2024/01/05 10:29:38;;;;;;;0.70;0.40;;;;;;;14.78;47.51;100969.00;6128814;23;20356;-85
2024/01/05 10:32:19;;;;;;;0.50;0.50;;;;;;;14.70;47.47;100969.97;6105110;23;20368;-85
2024/01/05 10:34:49;;;;;;;0.40;0.40;;;;;;;14.69;47.11;100969.16;6126481;23;20356;-85
2024/01/05 10:37:19;;;;;;;0.10;0.10;;;;;;;14.72;46.98;100965.25;6127115;23;20364;-85
2024/01/05 10:39:48;;;;;;;0.50;0.50;;;;;;;14.71;47.19;100966.25;6126513;23;20422;-85
2024/01/05 10:42:22;;;;;;;0.30;0.30;;;;;;;14.80;47.50;100972.31;6127348;23;20755;-85
2024/01/05 10:44:53;;;;;;;0.17;0.17;;;;;;;14.82;47.62;100971.09;6125374;23;20408;-85
2024/01/05 10:47:20;;;;;;;0.40;0.40;;;;;;;14.84;48.44;100965.59;6075430;23;20471;-84
2024/01/05 10:49:50;;;;;;;0.30;0.30;;;;;;;14.76;48.41;100968.38;6122812;23;20364;-84
2024/01/05 10:52:18;;;;;;;0.20;0.20;;;;;;;14.81;48.43;100961.44;6099044;23;20359;-84
2024/01/05 10:54:49;;;;;;;0.20;0.20;;;;;;;14.89;48.31;100965.81;6125650;23;20360;-84
2024/01/05 10:57:16;;;;;;;0.10;0.10;;;;;;;14.95;48.88;100966.91;6108536;23;20360;-84
2024/01/05 10:59:50;;;;;;;0.30;0.30;;;;;;;14.93;48.90;100968.91;6107957;23;20431;-85
2024/01/05 11:02:35;;;;;;;0.20;0.20;;;;;;;14.95;48.42;100958.91;6106338;23;20365;-84
2024/01/05 11:05:08;;;;;;;0.20;0.20;;;;;;;15.06;48.02;100961.03;6129661;23;20371;-83
2024/01/05 11:07:35;;;;;;;0.22;0.22;;;;;;;15.19;48.01;100966.47;6101418;23;20363;-84
2024/01/05 11:10:24;;;;;;;0.80;0.27;;;;;;;15.25;47.72;100954.19;6122332;23;20412;-86
2024/01/05 11:13:14;;;;;;;0.20;0.20;;;;;;;15.35;47.52;100951.19;6123088;23;20705;-83
2024/01/05 11:15:58;;;;;;;0.30;0.30;;;;;;;15.42;47.34;100950.19;6099473;23;20367;-84
2024/01/05 11:18:24;;;;;;;0.30;0.30;;;;;;;15.55;46.96;100952.13;6099856;23;20812;-84
2024/01/05 11:21:02;;;;;;;0.10;0.10;;;;;;;15.45;46.73;100947.13;6131273;23;20383;-82
2024/01/05 11:23:30;;;;;;;0.20;0.20;;;;;;;15.54;46.83;100950.47;6103177;23;20367;-84
2024/01/05 11:25:58;;;;;;;0.40;0.30;;;;;;;15.71;46.39;100958.16;6099427;23;20893;-88
2024/01/05 11:28:38;;;;;;;0.20;0.20;;;;;;;15.78;46.41;100959.06;6126622;23;20387;-85
2024/01/05 11:31:04;;;;;;;0.30;0.30;;;;;;;15.80;46.38;100957.00;6122910;23;20828;-85
2024/01/05 11:33:44;;;;;;;0.10;0.10;;;;;;;15.92;46.22;100949.22;6097724;23;20375;-85
2024/01/05 11:36:12;;;;;;;0.40;0.40;;;;;;;15.86;46.45;100943.69;6121833;23;20847;-85
2024/01/05 11:38:43;;;;;;;0.50;0.40;;;;;;;15.93;46.42;100949.03;6121852;23;20362;-87
2024/01/05 11:41:18;;;;;;;0.30;0.30;;;;;;;15.91;46.66;100947.59;6125671;23;20805;-83